Detroit, Michigan
Traffic Map
Current Weather Conditions
Detroit, Michigan
Overcast
Overcast

Feels Like: -1°
Wind Chill: -1° Ceiling: 2400
Heat Index: Visibility: 15mi
Dew Point: -1° Wind: 15mph
Humidity: 70% Direction: 350° (N)
Pressure: 30in Gusts: 0mph
Raw Report DataCYQG 231000Z 35013KT 15SM OVC024 04/M01 A3000 RMK SC8 SLP162
Traffic Incident Summary
Active as of:
Severity:
Category:
InformationThere was an issue retrieving the traffic information for this location. Please try a different location or try again shortly.
Advertisements
At Last! Intellicast now available for iPhone and Android